sensor_id;sensor_type;location;lat;lon;timestamp;pressure;altitude;pressure_sealevel;temperature;humidity
79413;BME280;68863;49.528;11.010;2023-07-02T00:00:49;97527.63;;;19.07;66.20
79413;BME280;68863;49.528;11.010;2023-07-02T00:01:51;97523.38;;;18.98;66.39
79413;BME280;68863;49.528;11.010;2023-07-02T00:02:51;97532.94;;;18.92;66.10
79413;BME280;68863;49.528;11.010;2023-07-02T00:03:52;97526.41;;;18.95;66.50
79413;BME280;68863;49.528;11.010;2023-07-02T00:04:52;97523.09;;;18.93;66.47
79413;BME280;68863;49.528;11.010;2023-07-02T00:05:52;97526.13;;;18.90;66.01
79413;BME280;68863;49.528;11.010;2023-07-02T00:06:54;97523.81;;;18.87;66.33
79413;BME280;68863;49.528;11.010;2023-07-02T00:07:54;97528.97;;;18.88;66.36
79413;BME280;68863;49.528;11.010;2023-07-02T00:08:55;97525.09;;;18.91;66.28
79413;BME280;68863;49.528;11.010;2023-07-02T00:09:55;97525.56;;;18.94;66.05
79413;BME280;68863;49.528;11.010;2023-07-02T00:10:55;97519.91;;;18.97;66.23
79413;BME280;68863;49.528;11.010;2023-07-02T00:11:55;97522.09;;;18.94;66.21
79413;BME280;68863;49.528;11.010;2023-07-02T00:12:56;97528.25;;;18.94;66.16
79413;BME280;68863;49.528;11.010;2023-07-02T00:13:56;97524.75;;;18.94;65.83
79413;BME280;68863;49.528;11.010;2023-07-02T00:14:56;97525.78;;;18.93;65.92
79413;BME280;68863;49.528;11.010;2023-07-02T00:15:56;97527.41;;;18.94;66.32
79413;BME280;68863;49.528;11.010;2023-07-02T00:16:58;97524.88;;;19.00;65.88
79413;BME280;68863;49.528;11.010;2023-07-02T00:17:59;97529.09;;;19.09;66.05
79413;BME280;68863;49.528;11.010;2023-07-02T00:18:59;97528.34;;;19.01;66.15
79413;BME280;68863;49.528;11.010;2023-07-02T00:19:59;97528.28;;;19.09;65.67
79413;BME280;68863;49.528;11.010;2023-07-02T00:21:03;97528.72;;;18.98;65.87
79413;BME280;68863;49.528;11.010;2023-07-02T00:22:03;97535.50;;;19.00;65.81
79413;BME280;68863;49.528;11.010;2023-07-02T00:23:04;97533.47;;;19.02;65.63
79413;BME280;68863;49.528;11.010;2023-07-02T00:24:04;97525.84;;;18.99;66.00
79413;BME280;68863;49.528;11.010;2023-07-02T00:25:05;97524.94;;;18.92;66.21
79413;BME280;68863;49.528;11.010;2023-07-02T00:26:05;97539.91;;;18.93;66.06
79413;BME280;68863;49.528;11.010;2023-07-02T00:27:05;97531.63;;;18.88;66.01
79413;BME280;68863;49.528;11.010;2023-07-02T00:28:06;97526.19;;;18.81;66.77
79413;BME280;68863;49.528;11.010;2023-07-02T00:29:06;97530.38;;;18.76;66.70
79413;BME280;68863;49.528;11.010;2023-07-02T00:30:08;97523.53;;;18.81;66.31
79413;BME280;68863;49.528;11.010;2023-07-02T00:31:08;97535.06;;;18.74;66.79
79413;BME280;68863;49.528;11.010;2023-07-02T00:32:08;97528.56;;;18.76;66.61
79413;BME280;68863;49.528;11.010;2023-07-02T00:33:09;97539.84;;;18.78;66.31
79413;BME280;68863;49.528;11.010;2023-07-02T00:34:09;97541.72;;;18.70;67.22
79413;BME280;68863;49.528;11.010;2023-07-02T00:35:09;97537.72;;;18.74;66.92
79413;BME280;68863;49.528;11.010;2023-07-02T00:36:09;97534.88;;;18.75;66.71
79413;BME280;68863;49.528;11.010;2023-07-02T00:37:14;97534.88;;;18.75;66.96
79413;BME280;68863;49.528;11.010;2023-07-02T00:38:15;97531.22;;;18.68;67.00
79413;BME280;68863;49.528;11.010;2023-07-02T00:39:15;97533.88;;;18.68;67.00
79413;BME280;68863;49.528;11.010;2023-07-02T00:40:17;97530.41;;;18.68;67.11
79413;BME280;68863;49.528;11.010;2023-07-02T00:41:18;97537.41;;;18.69;67.25
79413;BME280;68863;49.528;11.010;2023-07-02T00:42:18;97538.91;;;18.71;67.17
79413;BME280;68863;49.528;11.010;2023-07-02T00:43:20;97533.06;;;18.68;67.48
79413;BME280;68863;49.528;11.010;2023-07-02T00:44:20;97530.91;;;18.71;67.41
79413;BME280;68863;49.528;11.010;2023-07-02T00:45:20;97541.44;;;18.65;67.67
79413;BME280;68863;49.528;11.010;2023-07-02T00:46:22;97542.25;;;18.65;67.69
79413;BME280;68863;49.528;11.010;2023-07-02T00:47:25;97535.44;;;18.63;67.86
79413;BME280;68863;49.528;11.010;2023-07-02T00:48:25;97530.41;;;18.68;67.35
79413;BME280;68863;49.528;11.010;2023-07-02T00:49:26;97538.78;;;18.65;67.53
79413;BME280;68863;49.528;11.010;2023-07-02T00:50:27;97533.56;;;18.71;67.29
79413;BME280;68863;49.528;11.010;2023-07-02T00:51:28;97527.81;;;18.59;67.90
79413;BME280;68863;49.528;11.010;2023-07-02T00:52:29;97528.00;;;18.58;67.59
79413;BME280;68863;49.528;11.010;2023-07-02T00:53:29;97536.94;;;18.65;67.41
79413;BME280;68863;49.528;11.010;2023-07-02T00:54:30;97530.25;;;18.69;67.44
79413;BME280;68863;49.528;11.010;2023-07-02T00:55:31;97533.97;;;18.60;67.96
79413;BME280;68863;49.528;11.010;2023-07-02T00:56:31;97522.56;;;18.51;67.98
79413;BME280;68863;49.528;11.010;2023-07-02T00:57:31;97526.50;;;18.55;67.70
79413;BME280;68863;49.528;11.010;2023-07-02T00:58:34;97521.31;;;18.62;67.57
79413;BME280;68863;49.528;11.010;2023-07-02T00:59:35;97531.28;;;18.60;67.54
79413;BME280;68863;49.528;11.010;2023-07-02T01:00:38;97537.00;;;18.57;67.65
79413;BME280;68863;49.528;11.010;2023-07-02T01:01:38;97532.25;;;18.67;67.61
79413;BME280;68863;49.528;11.010;2023-07-02T01:02:38;97523.25;;;18.68;67.37
79413;BME280;68863;49.528;11.010;2023-07-02T01:04:02;97535.25;;;18.64;67.69
79413;BME280;68863;49.528;11.010;2023-07-02T01:05:03;97534.78;;;18.60;67.76
79413;BME280;68863;49.528;11.010;2023-07-02T01:06:04;97536.81;;;18.58;67.71
79413;BME280;68863;49.528;11.010;2023-07-02T01:07:05;97541.78;;;18.61;67.34
79413;BME280;68863;49.528;11.010;2023-07-02T01:08:09;97546.31;;;18.53;67.77
79413;BME280;68863;49.528;11.010;2023-07-02T01:09:12;97547.31;;;18.52;67.66
79413;BME280;68863;49.528;11.010;2023-07-02T01:10:12;97547.63;;;18.57;67.50
79413;BME280;68863;49.528;11.010;2023-07-02T01:11:12;97544.13;;;18.56;67.60
79413;BME280;68863;49.528;11.010;2023-07-02T01:12:13;97552.28;;;18.55;67.59
79413;BME280;68863;49.528;11.010;2023-07-02T01:13:19;97546.31;;;18.53;67.89
79413;BME280;68863;49.528;11.010;2023-07-02T01:14:33;97547.84;;;18.47;68.27
79413;BME280;68863;49.528;11.010;2023-07-02T01:15:34;97545.38;;;18.46;67.95
79413;BME280;68863;49.528;11.010;2023-07-02T01:16:35;97550.16;;;18.50;67.84
79413;BME280;68863;49.528;11.010;2023-07-02T01:17:36;97544.97;;;18.57;67.59
79413;BME280;68863;49.528;11.010;2023-07-02T01:18:43;97548.66;;;18.48;68.18
79413;BME280;68863;49.528;11.010;2023-07-02T01:19:46;97553.63;;;18.51;68.16
79413;BME280;68863;49.528;11.010;2023-07-02T01:20:51;97548.66;;;18.48;67.94
79413;BME280;68863;49.528;11.010;2023-07-02T01:21:53;97543.97;;;18.58;67.54
79413;BME280;68863;49.528;11.010;2023-07-02T01:22:53;97551.25;;;18.56;67.63
79413;BME280;68863;49.528;11.010;2023-07-02T01:23:54;97554.66;;;18.50;68.00
79413;BME280;68863;49.528;11.010;2023-07-02T01:24:55;97555.59;;;18.57;67.90
79413;BME280;68863;49.528;11.010;2023-07-02T01:25:55;97552.16;;;18.48;68.13
79413;BME280;68863;49.528;11.010;2023-07-02T01:26:59;97552.00;;;18.50;68.41
79413;BME280;68863;49.528;11.010;2023-07-02T01:28:01;97548.31;;;18.51;68.02
79413;BME280;68863;49.528;11.010;2023-07-02T01:29:19;97553.91;;;18.56;67.88
79413;BME280;68863;49.528;11.010;2023-07-02T01:34:00;97559.25;;;18.56;67.93
79413;BME280;68863;49.528;11.010;2023-07-02T01:35:01;97558.28;;;18.49;68.38
79413;BME280;68863;49.528;11.010;2023-07-02T01:36:01;97558.25;;;18.57;68.17
79413;BME280;68863;49.528;11.010;2023-07-02T01:37:03;97557.88;;;18.60;68.02
79413;BME280;68863;49.528;11.010;2023-07-02T01:38:04;97554.25;;;18.61;68.03
79413;BME280;68863;49.528;11.010;2023-07-02T01:39:04;97559.19;;;18.64;67.88
79413;BME280;68863;49.528;11.010;2023-07-02T01:40:06;97563.19;;;18.60;67.97
79413;BME280;68863;49.528;11.010;2023-07-02T01:41:06;97562.56;;;18.58;68.01
79413;BME280;68863;49.528;11.010;2023-07-02T01:42:14;97557.41;;;18.56;67.95
79413;BME280;68863;49.528;11.010;2023-07-02T01:43:18;97557.53;;;18.63;68.17
79413;BME280;68863;49.528;11.010;2023-07-02T01:44:19;97555.53;;;18.65;67.60
79413;BME280;68863;49.528;11.010;2023-07-02T01:45:19;97560.47;;;18.68;67.74
79413;BME280;68863;49.528;11.010;2023-07-02T01:46:20;97556.50;;;18.72;67.65
79413;BME280;68863;49.528;11.010;2023-07-02T01:47:20;97556.84;;;18.69;67.52
79413;BME280;68863;49.528;11.010;2023-07-02T01:48:21;97558.34;;;18.64;68.09
79413;BME280;68863;49.528;11.010;2023-07-02T01:49:21;97562.50;;;18.66;68.21
79413;BME280;68863;49.528;11.010;2023-07-02T01:50:21;97563.84;;;18.70;67.74
79413;BME280;68863;49.528;11.010;2023-07-02T01:51:21;97559.81;;;18.74;67.71
79413;BME280;68863;49.528;11.010;2023-07-02T01:52:22;97565.31;;;18.73;67.53
79413;BME280;68863;49.528;11.010;2023-07-02T01:53:22;97567.59;;;18.76;67.96
79413;BME280;68863;49.528;11.010;2023-07-02T01:54:24;97562.59;;;18.81;67.48
79413;BME280;68863;49.528;11.010;2023-07-02T01:55:27;97571.47;;;18.73;67.69
79413;BME280;68863;49.528;11.010;2023-07-02T01:56:27;97562.00;;;18.71;67.44
79413;BME280;68863;49.528;11.010;2023-07-02T01:57:28;97566.78;;;18.75;67.31
79413;BME280;68863;49.528;11.010;2023-07-02T01:58:30;97567.25;;;18.79;67.50
79413;BME280;68863;49.528;11.010;2023-07-02T01:59:30;97570.19;;;18.61;68.14
79413;BME280;68863;49.528;11.010;2023-07-02T02:00:31;97580.28;;;18.66;67.73
79413;BME280;68863;49.528;11.010;2023-07-02T02:01:31;97577.78;;;18.64;67.90
79413;BME280;68863;49.528;11.010;2023-07-02T02:02:32;97569.72;;;18.57;67.55
79413;BME280;68863;49.528;11.010;2023-07-02T02:03:33;97566.59;;;18.54;68.10
79413;BME280;68863;49.528;11.010;2023-07-02T02:04:33;97581.19;;;18.58;67.33
79413;BME280;68863;49.528;11.010;2023-07-02T02:05:33;97574.91;;;18.51;66.94
79413;BME280;68863;49.528;11.010;2023-07-02T02:06:36;97573.53;;;18.55;66.31
79413;BME280;68863;49.528;11.010;2023-07-02T02:07:36;97582.19;;;18.57;66.31
79413;BME280;68863;49.528;11.010;2023-07-02T02:08:37;97583.06;;;18.49;66.36
79413;BME280;68863;49.528;11.010;2023-07-02T02:09:37;97574.28;;;18.41;66.16
79413;BME280;68863;49.528;11.010;2023-07-02T02:10:38;97584.22;;;18.47;66.07
79413;BME280;68863;49.528;11.010;2023-07-02T02:11:40;97583.75;;;18.43;65.95
79413;BME280;68863;49.528;11.010;2023-07-02T02:12:40;97578.78;;;18.40;65.60
79413;BME280;68863;49.528;11.010;2023-07-02T02:13:41;97577.63;;;18.43;65.88
79413;BME280;68863;49.528;11.010;2023-07-02T02:14:41;97578.28;;;18.36;65.79
79413;BME280;68863;49.528;11.010;2023-07-02T02:15:41;97588.25;;;18.43;65.10
79413;BME280;68863;49.528;11.010;2023-07-02T02:16:43;97587.28;;;18.35;65.52
79413;BME280;68863;49.528;11.010;2023-07-02T02:17:46;97578.88;;;18.24;65.82
79413;BME280;68863;49.528;11.010;2023-07-02T02:18:46;97584.00;;;18.25;66.25
79413;BME280;68863;49.528;11.010;2023-07-02T02:19:47;97585.00;;;18.24;65.90
79413;BME280;68863;49.528;11.010;2023-07-02T02:20:47;97580.03;;;18.29;66.01
79413;BME280;68863;49.528;11.010;2023-07-02T02:21:47;97578.66;;;18.33;65.70
79413;BME280;68863;49.528;11.010;2023-07-02T02:22:48;97585.69;;;18.26;65.47
79413;BME280;68863;49.528;11.010;2023-07-02T02:23:48;97580.72;;;18.23;65.53
79413;BME280;68863;49.528;11.010;2023-07-02T02:24:48;97585.88;;;18.17;65.79
79413;BME280;68863;49.528;11.010;2023-07-02T02:25:49;97587.66;;;18.24;65.73
79413;BME280;68863;49.528;11.010;2023-07-02T02:26:49;97591.28;;;18.31;64.90
79413;BME280;68863;49.528;11.010;2023-07-02T02:27:49;97589.97;;;18.27;65.16
79413;BME280;68863;49.528;11.010;2023-07-02T02:28:50;97584.31;;;18.30;64.69
79413;BME280;68863;49.528;11.010;2023-07-02T02:29:50;97592.16;;;18.24;64.72
79413;BME280;68863;49.528;11.010;2023-07-02T02:30:50;97599.66;;;18.20;64.19
79413;BME280;68863;49.528;11.010;2023-07-02T02:31:50;97595.03;;;18.14;64.66
79413;BME280;68863;49.528;11.010;2023-07-02T02:32:51;97583.94;;;18.10;65.38
79413;BME280;68863;49.528;11.010;2023-07-02T02:33:51;97582.81;;;17.97;65.52
79413;BME280;68863;49.528;11.010;2023-07-02T02:34:51;97582.66;;;17.98;65.48
79413;BME280;68863;49.528;11.010;2023-07-02T02:35:52;97576.44;;;18.06;66.05
79413;BME280;68863;49.528;11.010;2023-07-02T02:36:52;97579.16;;;17.98;65.67
79413;BME280;68863;49.528;11.010;2023-07-02T02:37:55;97586.97;;;17.99;65.43
79413;BME280;68863;49.528;11.010;2023-07-02T02:38:55;97572.88;;;17.91;65.21
79413;BME280;68863;49.528;11.010;2023-07-02T02:39:55;97582.81;;;17.97;65.56
79413;BME280;68863;49.528;11.010;2023-07-02T02:40:57;97587.63;;;17.93;65.37
79413;BME280;68863;49.528;11.010;2023-07-02T02:41:58;97583.16;;;17.94;65.10
79413;BME280;68863;49.528;11.010;2023-07-02T02:42:58;97574.19;;;17.95;64.96
79413;BME280;68863;49.528;11.010;2023-07-02T02:43:58;97581.81;;;17.98;64.97
79413;BME280;68863;49.528;11.010;2023-07-02T02:44:58;97581.81;;;17.98;65.17
79413;BME280;68863;49.528;11.010;2023-07-02T02:45:59;97584.63;;;17.96;65.25
79413;BME280;68863;49.528;11.010;2023-07-02T02:46:59;97583.63;;;17.97;64.94
79413;BME280;68863;49.528;11.010;2023-07-02T02:47:59;97583.63;;;17.97;64.78
79413;BME280;68863;49.528;11.010;2023-07-02T02:49:00;97589.50;;;17.84;65.63
79413;BME280;68863;49.528;11.010;2023-07-02T02:50:00;97580.53;;;17.85;65.20
79413;BME280;68863;49.528;11.010;2023-07-02T02:51:00;97577.00;;;17.93;64.93
79413;BME280;68863;49.528;11.010;2023-07-02T02:52:00;97587.81;;;17.92;65.15
79413;BME280;68863;49.528;11.010;2023-07-02T02:53:01;97575.66;;;17.97;64.63
79413;BME280;68863;49.528;11.010;2023-07-02T02:54:01;97584.16;;;17.93;64.90
79413;BME280;68863;49.528;11.010;2023-07-02T02:55:01;97589.16;;;17.87;65.20
79413;BME280;68863;49.528;11.010;2023-07-02T02:56:01;97590.50;;;17.83;65.10
79413;BME280;68863;49.528;11.010;2023-07-02T02:57:02;97589.16;;;17.87;64.89
79413;BME280;68863;49.528;11.010;2023-07-02T02:58:03;97585.50;;;17.88;64.86
79413;BME280;68863;49.528;11.010;2023-07-02T02:59:03;97587.16;;;17.90;64.60
79413;BME280;68863;49.528;11.010;2023-07-02T03:00:04;97591.13;;;17.94;64.81
79413;BME280;68863;49.528;11.010;2023-07-02T03:01:05;97585.31;;;17.90;65.04
79413;BME280;68863;49.528;11.010;2023-07-02T03:02:10;97591.16;;;17.85;64.80
79413;BME280;68863;49.528;11.010;2023-07-02T03:03:12;97582.84;;;17.88;64.82
79413;BME280;68863;49.528;11.010;2023-07-02T03:04:12;97587.50;;;17.86;64.31
79413;BME280;68863;49.528;11.010;2023-07-02T03:05:12;97585.53;;;17.80;64.58
79413;BME280;68863;49.528;11.010;2023-07-02T03:06:16;97589.50;;;17.84;64.63
79413;BME280;68863;49.528;11.010;2023-07-02T03:07:17;97584.53;;;17.81;64.18
79413;BME280;68863;49.528;11.010;2023-07-02T03:08:17;97592.31;;;17.91;64.33
79413;BME280;68863;49.528;11.010;2023-07-02T03:09:18;97590.81;;;17.88;63.99
79413;BME280;68863;49.528;11.010;2023-07-02T03:10:18;97596.13;;;17.88;64.08
79413;BME280;68863;49.528;11.010;2023-07-02T03:11:18;97584.97;;;17.93;63.86
79413;BME280;68863;49.528;11.010;2023-07-02T03:12:19;97590.44;;;18.00;63.94
79413;BME280;68863;49.528;11.010;2023-07-02T03:13:19;97583.28;;;18.00;63.42
79413;BME280;68863;49.528;11.010;2023-07-02T03:14:19;97589.31;;;17.86;63.53
79413;BME280;68863;49.528;11.010;2023-07-02T03:15:19;97591.16;;;17.85;63.92
79413;BME280;68863;49.528;11.010;2023-07-02T03:16:20;97589.31;;;17.86;64.31
79413;BME280;68863;49.528;11.010;2023-07-02T03:17:21;97586.16;;;17.91;63.55
79413;BME280;68863;49.528;11.010;2023-07-02T03:18:21;97592.97;;;17.85;64.05
79413;BME280;68863;49.528;11.010;2023-07-02T03:19:22;97594.47;;;17.87;63.78
79413;BME280;68863;49.528;11.010;2023-07-02T03:20:22;97595.28;;;17.88;63.91
79413;BME280;68863;49.528;11.010;2023-07-02T03:21:23;97607.22;;;17.92;63.94
79413;BME280;68863;49.528;11.010;2023-07-02T03:22:23;97596.78;;;17.91;63.88
79413;BME280;68863;49.528;11.010;2023-07-02T03:23:23;97591.44;;;17.99;63.36
79413;BME280;68863;49.528;11.010;2023-07-02T03:24:23;97599.56;;;17.97;63.45
79413;BME280;68863;49.528;11.010;2023-07-02T03:25:24;97603.22;;;17.96;63.42
79413;BME280;68863;49.528;11.010;2023-07-02T03:26:24;97598.28;;;17.85;63.56
79413;BME280;68863;49.528;11.010;2023-07-02T03:27:24;97596.47;;;17.85;63.95
79413;BME280;68863;49.528;11.010;2023-07-02T03:28:25;97608.56;;;17.88;63.39
79413;BME280;68863;49.528;11.010;2023-07-02T03:29:26;97607.91;;;17.86;63.63
79413;BME280;68863;49.528;11.010;2023-07-02T03:30:26;97601.28;;;17.82;63.69
79413;BME280;68863;49.528;11.010;2023-07-02T03:31:26;97605.13;;;17.79;63.62
79413;BME280;68863;49.528;11.010;2023-07-02T03:32:26;97599.28;;;17.84;63.37
79413;BME280;68863;49.528;11.010;2023-07-02T03:33:27;97605.63;;;17.83;63.55
79413;BME280;68863;49.528;11.010;2023-07-02T03:34:27;97605.44;;;17.84;63.60
79413;BME280;68863;49.528;11.010;2023-07-02T03:35:27;97611.56;;;17.85;63.54
79413;BME280;68863;49.528;11.010;2023-07-02T03:36:28;97618.03;;;17.91;63.37
79413;BME280;68863;49.528;11.010;2023-07-02T03:37:28;97614.06;;;17.86;63.41
79413;BME280;68863;49.528;11.010;2023-07-02T03:38:28;97610.25;;;17.81;63.21
79413;BME280;68863;49.528;11.010;2023-07-02T03:39:29;97616.22;;;17.83;63.55
79413;BME280;68863;49.528;11.010;2023-07-02T03:40:29;97618.56;;;17.78;63.50
79413;BME280;68863;49.528;11.010;2023-07-02T03:41:29;97625.69;;;17.77;63.53
79413;BME280;68863;49.528;11.010;2023-07-02T03:42:32;97622.41;;;17.75;63.42
79413;BME280;68863;49.528;11.010;2023-07-02T03:43:32;97620.88;;;17.81;62.98
79413;BME280;68863;49.528;11.010;2023-07-02T03:44:32;97624.84;;;17.85;63.51
79413;BME280;68863;49.528;11.010;2023-07-02T03:45:33;97615.06;;;17.77;63.08
79413;BME280;68863;49.528;11.010;2023-07-02T03:46:33;97615.91;;;17.78;62.91
79413;BME280;68863;49.528;11.010;2023-07-02T03:47:34;97613.09;;;17.79;63.35
79413;BME280;68863;49.528;11.010;2023-07-02T03:48:34;97622.50;;;17.90;63.25
79413;BME280;68863;49.528;11.010;2023-07-02T03:49:34;97619.56;;;17.77;63.15
79413;BME280;68863;49.528;11.010;2023-07-02T03:50:34;97615.38;;;17.74;62.68
79413;BME280;68863;49.528;11.010;2023-07-02T03:51:35;97623.34;;;17.74;62.82
79413;BME280;68863;49.528;11.010;2023-07-02T03:52:35;97621.69;;;17.81;62.68
79413;BME280;68863;49.528;11.010;2023-07-02T03:53:35;97626.50;;;17.78;62.95
79413;BME280;68863;49.528;11.010;2023-07-02T03:54:35;97627.19;;;17.72;63.29
79413;BME280;68863;49.528;11.010;2023-07-02T03:55:36;97625.34;;;17.72;62.58
79413;BME280;68863;49.528;11.010;2023-07-02T03:56:36;97629.84;;;17.72;62.67
79413;BME280;68863;49.528;11.010;2023-07-02T03:57:36;97641.94;;;17.66;62.79
79413;BME280;68863;49.528;11.010;2023-07-02T03:58:37;97645.59;;;17.65;62.97
79413;BME280;68863;49.528;11.010;2023-07-02T03:59:37;97639.47;;;17.64;62.80
79413;BME280;68863;49.528;11.010;2023-07-02T04:00:38;97645.91;;;17.70;62.69
79413;BME280;68863;49.528;11.010;2023-07-02T04:01:38;97651.09;;;17.63;62.65
79413;BME280;68863;49.528;11.010;2023-07-02T04:02:39;97644.47;;;17.59;63.20
79413;BME280;68863;49.528;11.010;2023-07-02T04:03:42;97648.44;;;17.63;62.71
79413;BME280;68863;49.528;11.010;2023-07-02T04:04:42;97646.28;;;17.67;62.80
79413;BME280;68863;49.528;11.010;2023-07-02T04:05:43;97644.78;;;17.64;62.92
79413;BME280;68863;49.528;11.010;2023-07-02T04:06:43;97648.75;;;17.60;62.76
79413;BME280;68863;49.528;11.010;2023-07-02T04:07:44;97655.41;;;17.56;62.64
79413;BME280;68863;49.528;11.010;2023-07-02T04:08:44;97645.91;;;17.70;62.42
79413;BME280;68863;49.528;11.010;2023-07-02T04:09:45;97649.88;;;17.74;62.01
79413;BME280;68863;49.528;11.010;2023-07-02T04:10:45;97652.03;;;17.71;62.39
79413;BME280;68863;49.528;11.010;2023-07-02T04:11:45;97643.13;;;17.80;61.61
79413;BME280;68863;49.528;11.010;2023-07-02T04:12:48;97650.25;;;17.79;61.93
79413;BME280;68863;49.528;11.010;2023-07-02T04:13:49;97648.94;;;17.75;61.99
79413;BME280;68863;49.528;11.010;2023-07-02T04:14:49;97651.22;;;17.70;62.15
79413;BME280;68863;49.528;11.010;2023-07-02T04:15:49;97656.72;;;17.69;61.62
79413;BME280;68863;49.528;11.010;2023-07-02T04:16:50;97656.91;;;17.67;62.12
79413;BME280;68863;49.528;11.010;2023-07-02T04:17:50;97657.72;;;17.68;61.19
79413;BME280;68863;49.528;11.010;2023-07-02T04:18:50;97652.75;;;17.64;61.56
79413;BME280;68863;49.528;11.010;2023-07-02T04:19:54;97655.56;;;17.55;61.56
79413;BME280;68863;49.528;11.010;2023-07-02T04:20:55;97665.34;;;17.62;61.59
79413;BME280;68863;49.528;11.010;2023-07-02T04:21:55;97660.53;;;17.66;61.62
79413;BME280;68863;49.528;11.010;2023-07-02T04:22:58;97667.66;;;17.57;61.08
79413;BME280;68863;49.528;11.010;2023-07-02T04:23:58;97664.53;;;17.54;61.19
79413;BME280;68863;49.528;11.010;2023-07-02T04:24:58;97676.13;;;17.61;61.50
79413;BME280;68863;49.528;11.010;2023-07-02T04:25:59;97672.16;;;17.57;60.76
79413;BME280;68863;49.528;11.010;2023-07-02T04:26:59;97673.97;;;17.56;60.63
79413;BME280;68863;49.528;11.010;2023-07-02T04:27:59;97670.50;;;17.56;60.79
79413;BME280;68863;49.528;11.010;2023-07-02T04:29:00;97667.84;;;17.64;60.63
79413;BME280;68863;49.528;11.010;2023-07-02T04:30:00;97668.19;;;17.45;60.99
79413;BME280;68863;49.528;11.010;2023-07-02T04:31:00;97666.03;;;17.56;61.26
79413;BME280;68863;49.528;11.010;2023-07-02T04:32:01;97672.16;;;17.57;60.99
79413;BME280;68863;49.528;11.010;2023-07-02T04:33:01;97677.28;;;17.58;60.70
79413;BME280;68863;49.528;11.010;2023-07-02T04:34:01;97669.31;;;17.58;60.28
79413;BME280;68863;49.528;11.010;2023-07-02T04:35:02;97675.13;;;17.62;60.62
79413;BME280;68863;49.528;11.010;2023-07-02T04:36:03;97672.97;;;17.66;60.23
79413;BME280;68863;49.528;11.010;2023-07-02T04:37:04;97674.97;;;17.63;60.53
79413;BME280;68863;49.528;11.010;2023-07-02T04:38:05;97669.00;;;17.61;60.20
79413;BME280;68863;49.528;11.010;2023-07-02T04:39:10;97673.16;;;17.56;60.06
79413;BME280;68863;49.528;11.010;2023-07-02T04:40:10;97680.44;;;17.62;60.39
79413;BME280;68863;49.528;11.010;2023-07-02T04:41:11;97684.09;;;17.61;60.48
79413;BME280;68863;49.528;11.010;2023-07-02T04:42:11;97677.78;;;17.62;60.72
79413;BME280;68863;49.528;11.010;2023-07-02T04:43:16;97679.78;;;17.68;60.25
79413;BME280;68863;49.528;11.010;2023-07-02T04:44:18;97678.47;;;17.64;60.12
79413;BME280;68863;49.528;11.010;2023-07-02T04:45:20;97682.59;;;17.67;59.56
79413;BME280;68863;49.528;11.010;2023-07-02T04:46:21;97680.28;;;17.63;59.72
79413;BME280;68863;49.528;11.010;2023-07-02T04:47:21;97673.47;;;17.69;59.53
79413;BME280;68863;49.528;11.010;2023-07-02T04:48:21;97680.09;;;17.73;59.36
79413;BME280;68863;49.528;11.010;2023-07-02T04:49:22;97679.44;;;17.63;58.88
79413;BME280;68863;49.528;11.010;2023-07-02T04:50:22;97678.97;;;17.68;59.06
79413;BME280;68863;49.528;11.010;2023-07-02T04:51:22;97671.81;;;17.68;59.30
79413;BME280;68863;49.528;11.010;2023-07-02T04:52:22;97677.63;;;17.72;59.78
79413;BME280;68863;49.528;11.010;2023-07-02T04:53:23;97681.63;;;17.76;59.37
79413;BME280;68863;49.528;11.010;2023-07-02T04:54:23;97683.75;;;17.72;59.48
79413;BME280;68863;49.528;11.010;2023-07-02T04:55:23;97685.94;;;17.77;59.07
79413;BME280;68863;49.528;11.010;2023-07-02T04:56:24;97687.06;;;17.82;58.87
79413;BME280;68863;49.528;11.010;2023-07-02T04:57:24;97682.44;;;17.84;59.34
79413;BME280;68863;49.528;11.010;2023-07-02T04:58:24;97689.91;;;17.89;59.30
79413;BME280;68863;49.528;11.010;2023-07-02T04:59:25;97686.22;;;17.90;58.94
79413;BME280;68863;49.528;11.010;2023-07-02T05:00:25;97688.56;;;17.93;58.61
79413;BME280;68863;49.528;11.010;2023-07-02T05:01:27;97683.41;;;18.00;58.28
79413;BME280;68863;49.528;11.010;2023-07-02T05:02:28;97686.91;;;17.92;58.58
79413;BME280;68863;49.528;11.010;2023-07-02T05:03:28;97685.91;;;17.93;58.93
79413;BME280;68863;49.528;11.010;2023-07-02T05:04:28;97694.72;;;17.85;58.95
79413;BME280;68863;49.528;11.010;2023-07-02T05:05:29;97694.88;;;17.84;58.71
79413;BME280;68863;49.528;11.010;2023-07-02T05:06:30;97692.72;;;17.96;58.06
79413;BME280;68863;49.528;11.010;2023-07-02T05:07:30;97692.88;;;17.94;58.10
79413;BME280;68863;49.528;11.010;2023-07-02T05:08:30;97685.88;;;18.01;58.16
79413;BME280;68863;49.528;11.010;2023-07-02T05:09:31;97692.41;;;17.91;57.90
79413;BME280;68863;49.528;11.010;2023-07-02T05:10:31;97697.38;;;17.53;59.28
79413;BME280;68863;49.528;11.010;2023-07-02T05:11:31;97701.34;;;17.57;59.93
79413;BME280;68863;49.528;11.010;2023-07-02T05:12:32;97703.81;;;17.67;59.39
79413;BME280;68863;49.528;11.010;2023-07-02T05:13:32;97703.16;;;17.73;59.19
79413;BME280;68863;49.528;11.010;2023-07-02T05:14:32;97705.34;;;17.77;59.14
79413;BME280;68863;49.528;11.010;2023-07-02T05:15:33;97705.34;;;17.77;59.39
79413;BME280;68863;49.528;11.010;2023-07-02T05:16:33;97715.13;;;17.77;59.38
79413;BME280;68863;49.528;11.010;2023-07-02T05:17:33;97713.50;;;17.76;59.06
79413;BME280;68863;49.528;11.010;2023-07-02T05:18:35;97714.31;;;17.84;58.64
79413;BME280;68863;49.528;11.010;2023-07-02T05:19:36;97715.63;;;17.80;58.54
79413;BME280;68863;49.528;11.010;2023-07-02T05:20:36;97716.63;;;17.71;58.20
79413;BME280;68863;49.528;11.010;2023-07-02T05:21:36;97718.59;;;17.69;58.11
79413;BME280;68863;49.528;11.010;2023-07-02T05:22:36;97711.66;;;17.76;58.31